Time;durP1;ratioP1;P1;durP2;ratioP2;P2;SDS_P1;SDS_P2;PMS_P1;PMS_P2;Temp;Humidity;BMP_temperature;BMP_pressure;BME280_temperature;BME280_humidity;BME280_pressure;Samples;Min_cycle;Max_cycle;Signal;HPM_P1;HPM_P2
2022/08/04 00:02:27;;;;;;;;;;;;;;;17.04;87.54;99680.38;4994215;28;847;-71
2022/08/04 00:04:58;;;;;;;;;;;;;;;16.98;87.62;99691.31;4994175;28;922;-71
2022/08/04 00:07:31;;;;;;;;;;;;;;;16.94;87.80;99690.66;4994236;28;871;-71
2022/08/04 00:10:03;;;;;;;;;;;;;;;16.90;87.85;99688.00;4994437;28;870;-69
2022/08/04 00:12:32;;;;;;;;;;;;;;;16.87;87.76;99686.06;4994029;28;1966;-69
2022/08/04 00:15:00;;;;;;;;;;;;;;;16.82;87.91;99683.88;4993907;28;824;-69
2022/08/04 00:17:53;;;;;;;;;;;;;;;16.70;87.91;99690.19;4993948;28;879;-71
2022/08/04 00:20:20;;;;;;;;;;;;;;;16.60;88.48;99689.31;4971168;28;1408;-71
2022/08/04 00:22:48;;;;;;;;;;;;;;;16.50;88.62;99680.06;4994047;28;893;-71
2022/08/04 00:25:15;;;;;;;;;;;;;;;16.44;89.19;99679.03;4994146;28;899;-71
2022/08/04 00:27:42;;;;;;;;;;;;;;;16.38;88.93;99691.97;4993892;28;887;-71
2022/08/04 00:30:09;;;;;;;;;;;;;;;16.27;89.30;99688.75;4993824;28;862;-70
2022/08/04 00:32:35;;;;;;;;;;;;;;;16.25;89.74;99689.19;4993880;28;1902;-69
2022/08/04 00:35:02;;;;;;;;;;;;;;;16.28;89.98;99690.28;4993615;28;1326;-69
2022/08/04 00:37:29;;;;;;;;;;;;;;;16.33;89.85;99693.31;4975992;28;1241;-70
2022/08/04 00:39:56;;;;;;;;;;;;;;;16.38;89.61;99697.56;4993767;28;819;-72
2022/08/04 00:42:35;;;;;;;;;;;;;;;16.39;89.70;99699.13;4994005;28;863;-71
2022/08/04 00:45:17;;;;;;;;;;;;;;;16.42;89.89;99701.03;4993176;28;1114;-69
2022/08/04 00:48:02;;;;;;;;;;;;;;;16.55;90.50;99698.25;4975796;28;1259;-71
2022/08/04 00:50:31;;;;;;;;;;;;;;;16.61;90.54;99692.88;4992055;28;1293;-69
2022/08/04 00:53:17;;;;;;;;;;;;;;;16.63;90.78;99704.38;4993466;28;1922;-72
2022/08/04 00:56:03;;;;;;;;;;;;;;;16.66;90.57;99697.91;4993211;28;898;-71
2022/08/04 00:58:29;;;;;;;;;;;;;;;16.67;90.33;99697.47;4993398;28;960;-70
2022/08/04 01:01:02;;;;;;;;;;;;;;;16.66;90.45;99692.31;4975910;28;1261;-70
2022/08/04 01:03:32;;;;;;;;;;;;;;;16.68;90.11;99695.44;4993098;28;799;-69
2022/08/04 01:06:16;;;;;;;;;;;;;;;16.73;90.15;99697.69;4993182;28;939;-70
2022/08/04 01:08:59;;;;;;;;;;;;;;;16.82;90.02;99695.03;4993026;28;811;-72
2022/08/04 01:11:29;;;;;;;;;;;;;;;16.86;89.80;99695.69;4993367;28;816;-69
2022/08/04 01:14:07;;;;;;;;;;;;;;;16.89;89.62;99696.81;4992883;28;1950;-69
2022/08/04 01:16:42;;;;;;;;;;;;;;;16.89;89.67;99696.81;4992848;28;843;-71
2022/08/04 01:19:29;;;;;;;;;;;;;;;16.87;89.92;99699.25;4993034;28;835;-70
2022/08/04 01:21:55;;;;;;;;;;;;;;;16.87;89.89;99697.25;4975364;28;1312;-71
2022/08/04 01:24:40;;;;;;;;;;;;;;;16.87;89.69;99696.47;4992795;28;874;-69
2022/08/04 01:27:14;;;;;;;;;;;;;;;16.86;89.65;99703.28;4992701;28;853;-72
2022/08/04 01:29:48;;;;;;;;;;;;;;;16.87;89.44;99700.03;4992908;28;862;-71
2022/08/04 01:32:17;;;;;;;;;;;;;;;16.94;89.28;99701.81;4992525;28;1882;-72
2022/08/04 01:35:02;;;;;;;;;;;;;;;16.94;89.06;99696.22;4992484;28;1436;-70
2022/08/04 01:37:29;;;;;;;;;;;;;;;16.88;89.26;99692.47;4992561;28;838;-72
2022/08/04 01:40:00;;;;;;;;;;;;;;;16.85;89.35;99694.13;4992487;28;858;-71
2022/08/04 01:42:28;;;;;;;;;;;;;;;16.82;89.39;99700.63;4992479;28;830;-72
2022/08/04 01:44:54;;;;;;;;;;;;;;;16.80;89.89;99694.69;4992421;28;911;-71
2022/08/04 01:47:21;;;;;;;;;;;;;;;16.75;89.75;99698.03;4974814;28;1289;-72
2022/08/04 01:49:48;;;;;;;;;;;;;;;16.66;90.10;99692.31;4991637;28;870;-69
2022/08/04 01:52:16;;;;;;;;;;;;;;;16.59;90.25;99692.56;4992268;28;1975;-69
2022/08/04 01:54:45;;;;;;;;;;;;;;;16.58;90.60;99696.56;4992240;28;843;-69
2022/08/04 01:57:13;;;;;;;;;;;;;;;16.58;90.83;99689.00;4974916;28;1490;-69
2022/08/04 01:59:42;;;;;;;;;;;;;;;16.62;90.68;99686.88;4992285;28;847;-69
2022/08/04 02:02:09;;;;;;;;;;;;;;;16.62;90.64;99688.84;4992395;28;850;-68
2022/08/04 02:04:36;;;;;;;;;;;;;;;16.60;90.91;99686.53;4992198;28;894;-69
2022/08/04 02:07:10;;;;;;;;;;;;;;;16.56;91.00;99697.03;4974699;28;1231;-68
2022/08/04 02:09:42;;;;;;;;;;;;;;;16.53;90.96;99686.75;4992218;28;823;-69
2022/08/04 02:12:18;;;;;;;;;;;;;;;16.51;91.23;99681.63;4992033;28;1949;-68
2022/08/04 02:14:54;;;;;;;;;;;;;;;16.49;91.32;99686.88;4992053;28;930;-68
2022/08/04 02:17:57;;;;;;;;;;;;;;;16.44;91.50;99690.19;4992266;28;858;-68
2022/08/04 02:20:36;;;;;;;;;;;;;;;16.36;91.91;99690.88;4932366;29;1199;-68
2022/08/04 02:23:08;;;;;;;;;;;;;;;16.32;92.06;99697.34;4985525;28;954;-68
2022/08/04 02:25:55;;;;;;;;;;;;;;;16.29;92.39;99694.66;4992001;28;830;-68
2022/08/04 02:28:27;;;;;;;;;;;;;;;16.32;92.49;99699.31;4992299;28;886;-69
2022/08/04 02:30:57;;;;;;;;;;;;;;;16.56;92.09;99688.66;4992138;28;812;-69
2022/08/04 02:33:29;;;;;;;;;;;;;;;16.67;91.40;99691.09;4991958;28;1890;-68
2022/08/04 02:35:58;;;;;;;;;;;;;;;16.73;91.05;99689.31;4991935;28;894;-68
2022/08/04 02:38:44;;;;;;;;;;;;;;;16.85;90.54;99690.56;4991858;28;907;-69
2022/08/04 02:41:11;;;;;;;;;;;;;;;16.98;89.83;99693.31;4981498;28;1350;-69
2022/08/04 02:43:41;;;;;;;;;;;;;;;16.96;89.36;99696.56;4992085;28;927;-68
2022/08/04 02:46:09;;;;;;;;;;;;;;;16.89;89.20;99694.00;4991794;28;831;-68
2022/08/04 02:48:37;;;;;;;;;;;;;;;16.79;89.22;99693.13;4991849;28;824;-69
2022/08/04 02:51:05;;;;;;;;;;;;;;;16.68;89.10;99693.44;4991751;28;847;-68
2022/08/04 02:53:35;;;;;;;;;;;;;;;16.61;89.33;99690.09;4991697;28;1910;-69
2022/08/04 02:56:03;;;;;;;;;;;;;;;16.60;89.49;99694.09;4991754;28;816;-69
2022/08/04 02:58:33;;;;;;;;;;;;;;;16.60;89.37;99691.31;4992013;28;791;-69
2022/08/04 03:01:00;;;;;;;;;;;;;;;16.62;89.37;99698.03;4993482;28;897;-71
2022/08/04 03:03:38;;;;;;;;;;;;;;;16.64;89.57;99687.22;4995539;28;827;-70
2022/08/04 03:06:05;;;;;;;;;;;;;;;16.80;89.47;99691.09;4995249;28;811;-69
2022/08/04 03:08:47;;;;;;;;;;;;;;;16.99;88.69;99692.88;4995312;28;803;-70
2022/08/04 03:11:32;;;;;;;;;;;;;;;17.17;87.67;99691.50;4995383;28;902;-68
2022/08/04 03:14:17;;;;;;;;;;;;;;;17.21;86.98;99692.94;4995194;28;1903;-68
2022/08/04 03:16:56;;;;;;;;;;;;;;;17.25;86.67;99707.56;4995786;28;815;-68
2022/08/04 03:19:28;;;;;;;;;;;;;;;17.30;86.14;99701.44;4995067;28;831;-68
2022/08/04 03:22:06;;;;;;;;;;;;;;;17.29;85.89;99699.84;4995022;28;857;-68
2022/08/04 03:24:35;;;;;;;;;;;;;;;17.28;85.66;99706.69;4994957;28;810;-68
2022/08/04 03:27:31;;;;;;;;;;;;;;;17.31;85.29;99700.19;4994928;28;822;-68
2022/08/04 03:30:04;;;;;;;;;;;;;;;17.30;85.09;99703.41;4982023;28;1093;-68
2022/08/04 03:32:48;;;;;;;;;;;;;;;17.32;84.84;99707.31;4994878;28;1890;-68
2022/08/04 03:35:15;;;;;;;;;;;;;;;17.32;84.55;99710.09;4994636;28;1455;-68
2022/08/04 03:37:53;;;;;;;;;;;;;;;17.30;84.37;99715.41;4994700;28;869;-68
2022/08/04 03:40:38;;;;;;;;;;;;;;;17.28;84.39;99711.47;4994751;28;799;-68
2022/08/04 03:43:23;;;;;;;;;;;;;;;17.28;84.24;99720.66;4994601;28;894;-67
2022/08/04 03:45:56;;;;;;;;;;;;;;;17.29;84.52;99710.25;4993314;28;1377;-68
2022/08/04 03:48:43;;;;;;;;;;;;;;;17.38;83.76;99706.75;4994507;28;799;-68
2022/08/04 03:54:34;;;;;;;;;;;;;;;17.59;82.95;99711.59;4993433;28;1910;-68
2022/08/04 03:57:21;;;;;;;;;;;;;;;17.70;82.28;99706.41;4994447;28;882;-67
2022/08/04 04:00:07;;;;;;;;;;;;;;;17.79;82.02;99710.50;4984094;28;1367;-68
2022/08/04 04:02:52;;;;;;;;;;;;;;;17.85;81.79;99715.09;4995162;28;800;-68
2022/08/04 04:05:21;;;;;;;;;;;;;;;17.90;81.99;99705.34;4994459;28;898;-68
2022/08/04 04:07:51;;;;;;;;;;;;;;;18.04;81.94;99707.63;4994724;28;877;-68
2022/08/04 04:10:18;;;;;;;;;;;;;;;18.68;79.92;99714.78;4994421;28;882;-68
2022/08/04 04:12:55;;;;;;;;;;;;;;;19.29;77.25;99717.97;4993396;28;1878;-68
2022/08/04 04:15:36;;;;;;;;;;;;;;;19.77;75.23;99713.47;4993978;28;874;-68
2022/08/04 04:18:26;;;;;;;;;;;;;;;20.11;73.74;99708.75;4993895;28;1025;-68
2022/08/04 04:21:11;;;;;;;;;;;;;;;20.40;72.35;99704.66;4993913;28;891;-68
2022/08/04 04:23:43;;;;;;;;;;;;;;;20.45;72.07;99709.59;4993848;28;862;-68
2022/08/04 04:26:29;;;;;;;;;;;;;;;20.31;72.40;99704.66;4994071;28;874;-67
2022/08/04 04:29:15;;;;;;;;;;;;;;;20.18;72.67;99714.06;4976259;28;1262;-67
2022/08/04 04:31:47;;;;;;;;;;;;;;;20.13;72.98;99711.09;4993730;28;839;-68
2022/08/04 04:34:19;;;;;;;;;;;;;;;20.11;73.00;99717.19;4993582;28;1925;-68
2022/08/04 04:36:57;;;;;;;;;;;;;;;20.13;72.89;99713.91;4993718;28;792;-67
2022/08/04 04:39:30;;;;;;;;;;;;;;;20.20;72.53;99716.38;4993634;28;855;-68
2022/08/04 04:41:56;;;;;;;;;;;;;;;20.28;72.08;99714.03;4993520;28;847;-67
2022/08/04 04:44:36;;;;;;;;;;;;;;;20.36;71.75;99709.66;4993700;28;877;-68
2022/08/04 04:47:08;;;;;;;;;;;;;;;20.46;71.68;99710.38;4993649;28;886;-67
2022/08/04 04:49:34;;;;;;;;;;;;;;;20.62;71.23;99717.69;4993396;28;823;-67
2022/08/04 04:52:11;;;;;;;;;;;;;;;20.84;70.40;99712.59;4993212;28;1914;-67
2022/08/04 04:54:40;;;;;;;;;;;;;;;21.18;69.62;99718.97;4993416;28;906;-67
2022/08/04 04:57:10;;;;;;;;;;;;;;;21.63;68.47;99719.16;4993209;28;861;-67
2022/08/04 04:59:38;;;;;;;;;;;;;;;21.87;66.99;99713.47;4993553;28;811;-68
2022/08/04 05:02:07;;;;;;;;;;;;;;;21.86;67.29;99709.13;4993629;28;882;-68
2022/08/04 05:04:33;;;;;;;;;;;;;;;21.89;67.20;99716.56;4993108;28;882;-68
2022/08/04 05:07:03;;;;;;;;;;;;;;;21.94;66.94;99710.28;4993132;28;843;-67
2022/08/04 05:09:48;;;;;;;;;;;;;;;22.08;66.72;99720.75;4993174;28;831;-67
2022/08/04 05:12:36;;;;;;;;;;;;;;;22.22;65.79;99720.03;4992963;28;1894;-68
2022/08/04 05:15:03;;;;;;;;;;;;;;;22.40;65.11;99724.69;4993124;28;814;-68
2022/08/04 05:17:34;;;;;;;;;;;;;;;22.57;64.99;99724.94;4993044;28;815;-67
2022/08/04 05:20:05;;;;;;;;;;;;;;;22.79;63.96;99730.19;4992853;28;839;-68
2022/08/04 05:22:51;;;;;;;;;;;;;;;23.05;63.02;99720.34;4992755;28;803;-67
2022/08/04 05:25:33;;;;;;;;;;;;;;;23.27;62.56;99717.81;4992295;28;1499;-67
2022/08/04 05:28:05;;;;;;;;;;;;;;;23.59;61.40;99724.34;4992959;28;811;-67
2022/08/04 05:30:34;;;;;;;;;;;;;;;24.03;59.83;99717.69;4975179;28;1291;-67
2022/08/04 05:33:06;;;;;;;;;;;;;;;24.35;58.92;99720.56;4992688;28;1894;-67
2022/08/04 05:35:55;;;;;;;;;;;;;;;24.66;58.19;99721.84;4973249;28;862;-67
2022/08/04 05:38:25;;;;;;;;;;;;;;;25.26;55.94;99721.97;4973130;28;882;-68
2022/08/04 05:40:52;;;;;;;;;;;;;;;26.07;54.35;99722.53;4973074;28;816;-67
2022/08/04 05:43:19;;;;;;;;;;;;;;;26.77;50.16;99715.09;4972900;28;839;-67
2022/08/04 05:45:47;;;;;;;;;;;;;;;27.49;46.32;99712.59;4973135;28;824;-66
2022/08/04 05:51:16;;;;;;;;;;;;;;;28.34;42.86;99714.97;4972806;28;1159;-68
2022/08/04 05:53:45;;;;;;;;;;;;;;;28.92;42.06;99718.31;4972843;28;1968;-67
2022/08/04 05:56:13;;;;;;;;;;;;;;;29.23;40.82;99721.91;4972894;28;914;-67
2022/08/04 06:01:45;;;;;;;;;;;;;;;28.63;41.64;99717.03;4972838;28;637;-69
2022/08/04 06:04:12;;;;;;;;;;;;;;;28.70;41.74;99715.72;4972749;28;928;-68
2022/08/04 06:06:40;;;;;;;;;;;;;;;29.03;41.09;99711.75;4972786;28;918;-68
2022/08/04 06:09:07;;;;;;;;;;;;;;;29.59;39.95;99715.25;4972711;28;836;-68
2022/08/04 06:11:34;;;;;;;;;;;;;;;30.03;38.71;99719.59;4972687;28;802;-68
2022/08/04 06:14:04;;;;;;;;;;;;;;;30.38;38.63;99705.59;4972579;28;1886;-68
2022/08/04 06:16:38;;;;;;;;;;;;;;;30.83;37.18;99708.44;4972657;28;863;-68
2022/08/04 06:19:09;;;;;;;;;;;;;;;31.03;36.69;99706.28;4972895;28;859;-68
2022/08/04 06:21:39;;;;;;;;;;;;;;;30.92;36.82;99710.88;4972660;28;839;-67
2022/08/04 06:24:09;;;;;;;;;;;;;;;31.29;36.12;99703.41;4972812;28;823;-67
2022/08/04 06:26:37;;;;;;;;;;;;;;;31.25;35.70;99705.84;4972600;28;851;-67
2022/08/04 06:29:04;;;;;;;;;;;;;;;31.02;36.12;99701.88;4972554;28;906;-68
2022/08/04 06:31:56;;;;;;;;;;;;;;;31.24;36.34;99703.53;4972605;28;882;-68
2022/08/04 06:34:27;;;;;;;;;;;;;;;31.31;35.64;99700.78;4983144;28;1875;-66
2022/08/04 06:36:55;;;;;;;;;;;;;;;31.77;35.25;99706.31;4995056;28;929;-68
2022/08/04 06:39:23;;;;;;;;;;;;;;;31.74;35.33;99702.47;4996389;28;811;-66
2022/08/04 06:41:52;;;;;;;;;;;;;;;31.38;35.46;99699.34;4995976;28;882;-68
2022/08/04 06:44:20;;;;;;;;;;;;;;;31.84;35.39;99707.75;4995789;28;788;-68
2022/08/04 06:46:47;;;;;;;;;;;;;;;32.19;34.75;99715.00;4995652;28;807;-67
2022/08/04 06:49:14;;;;;;;;;;;;;;;32.65;34.22;99706.84;4995809;28;823;-67
2022/08/04 06:51:41;;;;;;;;;;;;;;;32.98;33.11;99720.81;4995718;28;855;-67
2022/08/04 06:54:08;;;;;;;;;;;;;;;32.99;33.39;99720.25;4995480;28;1966;-67
2022/08/04 06:56:37;;;;;;;;;;;;;;;33.02;32.70;99721.22;4995540;28;891;-67
2022/08/04 06:59:04;;;;;;;;;;;;;;;33.05;32.94;99720.09;4995426;28;882;-67
2022/08/04 07:01:35;;;;;;;;;;;;;;;32.96;33.50;99721.38;4977803;28;1366;-68
2022/08/04 07:04:02;;;;;;;;;;;;;;;32.63;33.48;99723.06;4995341;28;867;-67
2022/08/04 07:06:29;;;;;;;;;;;;;;;33.05;33.08;99729.47;4995323;28;819;-67
2022/08/04 07:08:56;;;;;;;;;;;;;;;33.27;32.16;99730.19;4995218;28;909;-68
2022/08/04 07:11:23;;;;;;;;;;;;;;;32.87;32.69;99734.09;4995189;28;862;-67
2022/08/04 07:13:50;;;;;;;;;;;;;;;32.74;32.95;99734.19;4995081;28;1886;-68
2022/08/04 07:16:19;;;;;;;;;;;;;;;32.78;33.29;99720.31;4995133;28;815;-68
2022/08/04 07:18:46;;;;;;;;;;;;;;;32.74;33.63;99729.22;4995257;28;855;-67
2022/08/04 07:21:22;;;;;;;;;;;;;;;32.68;33.14;99720.03;4995076;28;874;-67
2022/08/04 07:23:49;;;;;;;;;;;;;;;32.90;32.98;99726.47;4995821;28;780;-68
2022/08/04 07:26:17;;;;;;;;;;;;;;;32.55;33.15;99723.75;4995363;28;1282;-67
2022/08/04 07:28:45;;;;;;;;;;;;;;;32.74;33.27;99728.47;4995143;28;845;-67
2022/08/04 07:31:15;;;;;;;;;;;;;;;33.27;32.75;99724.47;4995118;28;866;-68
2022/08/04 07:33:42;;;;;;;;;;;;;;;33.91;31.20;99720.75;4994778;28;1952;-66
2022/08/04 07:36:09;;;;;;;;;;;;;;;34.21;30.79;99727.16;4995002;28;815;-67
2022/08/04 07:38:37;;;;;;;;;;;;;;;34.45;30.57;99723.72;4994724;28;934;-67
2022/08/04 07:41:04;;;;;;;;;;;;;;;34.55;30.31;99718.19;4994597;28;859;-67
2022/08/04 07:43:31;;;;;;;;;;;;;;;34.72;30.07;99715.53;4994726;28;783;-67
2022/08/04 07:45:58;;;;;;;;;;;;;;;34.76;29.68;99724.53;4994745;28;827;-67
2022/08/04 07:48:25;;;;;;;;;;;;;;;34.47;29.98;99726.03;4993521;28;795;-68
2022/08/04 07:50:52;;;;;;;;;;;;;;;34.89;29.96;99714.94;4994516;28;804;-68
2022/08/04 07:53:19;;;;;;;;;;;;;;;34.89;29.71;99714.19;4994456;28;1906;-68
2022/08/04 07:55:46;;;;;;;;;;;;;;;34.86;29.38;99715.31;4994354;28;843;-67
2022/08/04 07:58:13;;;;;;;;;;;;;;;34.98;29.28;99707.84;4994489;28;855;-68
2022/08/04 08:00:40;;;;;;;;;;;;;;;34.89;29.38;99714.94;4994278;28;899;-68
2022/08/04 08:03:07;;;;;;;;;;;;;;;35.07;29.38;99695.75;4994577;28;847;-67
2022/08/04 08:05:34;;;;;;;;;;;;;;;35.25;29.08;99711.06;4994184;28;863;-67
2022/08/04 08:08:01;;;;;;;;;;;;;;;35.64;28.04;99702.34;4976746;28;1308;-67
2022/08/04 08:10:27;;;;;;;;;;;;;;;35.56;27.69;99705.22;4994006;28;819;-68
2022/08/04 08:12:53;;;;;;;;;;;;;;;34.89;28.78;99708.44;4994252;28;1948;-67
2022/08/04 08:15:47;;;;;;;;;;;;;;;34.81;28.68;99710.56;4994043;28;887;-67
2022/08/04 08:18:13;;;;;;;;;;;;;;;34.23;29.69;99707.28;4994017;28;866;-68
2022/08/04 08:20:43;;;;;;;;;;;;;;;34.28;29.81;99709.94;4993983;28;890;-68
2022/08/04 08:23:09;;;;;;;;;;;;;;;34.25;30.17;99710.34;4993814;28;870;-68
2022/08/04 08:25:36;;;;;;;;;;;;;;;34.34;30.11;99696.19;4993887;28;910;-67
2022/08/04 08:28:04;;;;;;;;;;;;;;;34.77;29.83;99694.47;4993781;28;823;-69
2022/08/04 08:30:32;;;;;;;;;;;;;;;35.15;29.00;99684.28;4993787;28;861;-68
2022/08/04 08:33:00;;;;;;;;;;;;;;;34.63;29.39;99693.16;4993823;28;1985;-68
2022/08/04 08:35:34;;;;;;;;;;;;;;;33.88;29.46;99696.06;4993578;28;1361;-68
2022/08/04 08:38:02;;;;;;;;;;;;;;;33.31;30.84;99688.41;4993906;28;827;-67
2022/08/04 08:40:44;;;;;;;;;;;;;;;33.74;30.25;99700.44;4993714;28;1269;-68
2022/08/04 08:43:19;;;;;;;;;;;;;;;33.28;30.63;99698.13;4993493;28;926;-67
2022/08/04 08:46:03;;;;;;;;;;;;;;;33.76;29.86;99692.81;4993528;28;871;-68
2022/08/04 08:48:59;;;;;;;;;;;;;;;34.45;29.46;99697.16;4993451;28;886;-68
2022/08/04 08:51:45;;;;;;;;;;;;;;;34.47;29.10;99686.63;4980708;28;1285;-68
2022/08/04 08:54:28;;;;;;;;;;;;;;;33.80;30.20;99686.72;4993509;28;2041;-67
2022/08/04 08:57:18;;;;;;;;;;;;;;;33.99;29.98;99692.09;4993782;28;810;-68
2022/08/04 09:00:04;;;;;;;;;;;;;;;34.36;30.05;99687.78;4984973;28;1353;-67
2022/08/04 09:02:50;;;;;;;;;;;;;;;34.65;29.39;99692.56;4992286;28;1462;-67
2022/08/04 09:05:34;;;;;;;;;;;;;;;34.66;29.43;99682.63;4993065;28;794;-67
2022/08/04 09:08:11;;;;;;;;;;;;;;;34.92;28.68;99682.19;4993071;28;815;-67
2022/08/04 09:10:43;;;;;;;;;;;;;;;34.06;29.78;99679.88;4993027;28;827;-67
2022/08/04 09:13:25;;;;;;;;;;;;;;;33.87;30.33;99680.22;4992889;28;1941;-68
2022/08/04 09:15:58;;;;;;;;;;;;;;;33.54;30.24;99671.31;4992970;28;851;-67
2022/08/04 09:18:28;;;;;;;;;;;;;;;33.24;30.97;99676.91;4992871;28;791;-68
2022/08/04 09:21:06;;;;;;;;;;;;;;;33.11;31.29;99664.25;4992915;28;861;-68
2022/08/04 09:23:38;;;;;;;;;;;;;;;32.74;31.96;99671.25;4992979;28;898;-67
2022/08/04 09:29:17;;;;;;;;;;;;;;;32.70;31.28;99662.25;4993308;28;606;-67
2022/08/04 09:31:46;;;;;;;;;;;;;;;32.86;32.00;99665.97;4992583;28;859;-68
2022/08/04 09:34:31;;;;;;;;;;;;;;;32.95;30.98;99674.06;4992487;28;1902;-70
2022/08/04 09:37:16;;;;;;;;;;;;;;;33.22;31.47;99662.38;4992681;28;850;-69
2022/08/04 09:39:42;;;;;;;;;;;;;;;33.33;31.03;99659.22;4992491;28;824;-67
2022/08/04 09:42:19;;;;;;;;;;;;;;;33.09;30.51;99664.03;4992775;28;865;-70
2022/08/04 09:45:11;;;;;;;;;;;;;;;32.58;31.20;99669.59;4992796;28;894;-68
2022/08/04 09:47:46;;;;;;;;;;;;;;;32.22;31.88;99653.84;4992393;28;870;-67
2022/08/04 09:50:27;;;;;;;;;;;;;;;32.61;32.29;99652.09;4992388;28;820;-68
2022/08/04 09:52:56;;;;;;;;;;;;;;;33.00;31.52;99650.22;4992349;28;1918;-68
2022/08/04 09:55:42;;;;;;;;;;;;;;;33.03;30.84;99651.97;4975050;28;1162;-67
2022/08/04 09:58:14;;;;;;;;;;;;;;;32.67;31.31;99649.84;4992269;28;797;-68
2022/08/04 10:00:50;;;;;;;;;;;;;;;32.64;31.38;99639.50;4992275;28;792;-69
2022/08/04 10:03:18;;;;;;;;;;;;;;;33.12;30.63;99660.06;4992509;28;823;-69
2022/08/04 10:34:24;;;;;;;;;;;;;;;34.08;27.84;99636.31;5346994;23;1801;-63
2022/08/04 10:42:56;;;;;;;;;;;;;;;34.22;27.64;99637.66;4991949;28;629;-65
2022/08/04 10:45:44;;;;;;;;;;;;;;;34.10;26.91;99630.78;4991852;28;795;-65
2022/08/04 11:00:24;;;;;;;;;;;;;;;35.03;26.25;99619.97;4992117;28;629;-62
2022/08/04 11:05:54;;;;;;;;;;;;;;;35.52;25.66;99610.78;4991820;28;625;-62
2022/08/04 11:08:33;;;;;;;;;;;;;;;35.30;26.08;99623.16;4991920;28;1015;-62
2022/08/04 11:11:02;;;;;;;;;;;;;;;34.11;27.46;99630.19;4991883;28;870;-63
2022/08/04 11:13:34;;;;;;;;;;;;;;;34.44;26.84;99624.69;4991705;28;1902;-62
2022/08/04 11:16:04;;;;;;;;;;;;;;;33.75;27.50;99619.63;4991730;28;854;-62
2022/08/04 11:18:42;;;;;;;;;;;;;;;33.76;28.16;99614.69;4991592;28;858;-61
2022/08/04 11:21:35;;;;;;;;;;;;;;;33.32;28.37;99614.72;4992017;28;799;-62
2022/08/04 11:24:08;;;;;;;;;;;;;;;34.23;27.57;99615.50;4992705;28;1470;-63
2022/08/04 11:29:41;;;;;;;;;;;;;;;36.32;25.37;99600.47;4994891;28;1375;-63
2022/08/04 11:32:13;;;;;;;;;;;;;;;34.72;26.02;99608.59;4994733;28;1127;-63
2022/08/04 11:34:43;;;;;;;;;;;;;;;33.33;27.79;99601.94;4994649;28;1219;-65
2022/08/04 11:37:24;;;;;;;;;;;;;;;34.13;27.70;99601.72;4977336;28;1353;-62
2022/08/04 11:40:08;;;;;;;;;;;;;;;34.91;26.37;99600.31;4975949;28;1293;-62
2022/08/04 11:42:40;;;;;;;;;;;;;;;35.91;26.22;99591.22;4994897;28;814;-63
2022/08/04 11:45:23;;;;;;;;;;;;;;;36.97;24.77;99587.16;4994671;28;830;-62
2022/08/04 11:47:53;;;;;;;;;;;;;;;37.52;24.43;99593.75;4994565;28;819;-62
2022/08/04 11:50:19;;;;;;;;;;;;;;;36.87;24.47;99598.59;4994527;28;866;-61
2022/08/04 11:52:46;;;;;;;;;;;;;;;34.98;26.01;99590.91;4994415;28;1922;-63
2022/08/04 11:55:21;;;;;;;;;;;;;;;34.02;27.79;99596.34;4994460;28;803;-63
2022/08/04 11:57:48;;;;;;;;;;;;;;;34.89;26.54;99600.13;4994531;28;990;-62
2022/08/04 12:00:18;;;;;;;;;;;;;;;36.09;25.78;99589.13;4976929;28;1309;-64
2022/08/04 12:03:03;;;;;;;;;;;;;;;37.04;24.39;99585.53;4994178;28;1104;-63
2022/08/04 12:05:32;;;;;;;;;;;;;;;35.84;25.03;99597.75;4994249;28;894;-62
2022/08/04 12:08:09;;;;;;;;;;;;;;;33.63;27.21;99600.50;4994252;28;886;-63
2022/08/04 12:10:46;;;;;;;;;;;;;;;34.14;27.24;99597.53;4994146;28;792;-63
2022/08/04 12:13:30;;;;;;;;;;;;;;;35.41;25.78;99593.97;4976580;28;1965;-63
2022/08/04 12:16:14;;;;;;;;;;;;;;;36.67;24.53;99583.25;4994027;28;1122;-63
2022/08/04 12:19:01;;;;;;;;;;;;;;;38.11;23.51;99586.16;4994010;28;815;-63
2022/08/04 12:21:48;;;;;;;;;;;;;;;38.48;22.38;99588.97;4993974;28;799;-63
2022/08/04 12:24:26;;;;;;;;;;;;;;;38.22;22.87;99570.38;4993892;28;815;-63
2022/08/04 12:26:56;;;;;;;;;;;;;;;39.17;22.06;99565.28;4993920;28;838;-63
2022/08/04 12:29:25;;;;;;;;;;;;;;;39.53;21.78;99568.59;4993996;28;811;-62
2022/08/04 12:35:08;;;;;;;;;;;;;;;36.46;24.73;99568.50;4988815;28;1322;-63
2022/08/04 12:37:55;;;;;;;;;;;;;;;36.01;24.97;99565.44;4993656;28;905;-64
2022/08/04 12:40:38;;;;;;;;;;;;;;;35.41;25.76;99571.00;4993652;28;850;-63
2022/08/04 12:43:23;;;;;;;;;;;;;;;33.38;28.21;99575.22;4993736;28;843;-63
2022/08/04 12:45:55;;;;;;;;;;;;;;;31.99;29.54;99575.72;4993436;28;1085;-62
2022/08/04 12:48:25;;;;;;;;;;;;;;;31.24;31.09;99567.28;4993455;28;792;-63
2022/08/04 12:50:53;;;;;;;;;;;;;;;31.57;31.12;99567.09;4993423;28;850;-62
2022/08/04 12:53:21;;;;;;;;;;;;;;;34.19;27.79;99552.03;4993360;28;1907;-64
2022/08/04 12:55:50;;;;;;;;;;;;;;;36.09;25.45;99557.50;4993315;28;897;-62
2022/08/04 12:58:27;;;;;;;;;;;;;;;37.14;24.00;99555.47;4993171;28;1234;-63
2022/08/04 13:01:01;;;;;;;;;;;;;;;37.73;22.96;99552.94;4993241;28;839;-64
2022/08/04 13:03:29;;;;;;;;;;;;;;;38.04;22.85;99555.31;4993112;28;819;-63
2022/08/04 13:05:56;;;;;;;;;;;;;;;38.14;22.35;99551.09;4993114;28;846;-62
2022/08/04 13:08:23;;;;;;;;;;;;;;;38.34;21.66;99543.22;4993054;28;961;-64
2022/08/04 13:10:51;;;;;;;;;;;;;;;38.85;21.52;99548.44;4993169;28;878;-64
2022/08/04 13:13:23;;;;;;;;;;;;;;;38.98;21.35;99533.53;4992875;28;1882;-62
2022/08/04 13:16:02;;;;;;;;;;;;;;;38.59;21.35;99548.75;4992937;28;851;-63
2022/08/04 13:18:34;;;;;;;;;;;;;;;38.18;22.10;99547.78;4992830;28;961;-64
2022/08/04 13:21:12;;;;;;;;;;;;;;;38.56;21.78;99560.78;4992958;28;806;-64
2022/08/04 13:23:40;;;;;;;;;;;;;;;38.09;21.57;99557.94;4975422;28;1324;-62
2022/08/04 13:26:06;;;;;;;;;;;;;;;38.19;21.67;99561.56;4992740;28;878;-62
2022/08/04 13:28:42;;;;;;;;;;;;;;;37.90;21.82;99564.38;4992930;28;838;-63
2022/08/04 13:31:12;;;;;;;;;;;;;;;37.78;22.29;99558.41;4992593;28;819;-62
2022/08/04 13:33:41;;;;;;;;;;;;;;;36.70;23.10;99564.03;4974936;28;1959;-63
2022/08/04 13:36:09;;;;;;;;;;;;;;;36.09;24.20;99554.63;4992686;28;826;-64
2022/08/04 13:38:37;;;;;;;;;;;;;;;36.19;24.67;99563.41;4992592;28;870;-63
2022/08/04 13:41:05;;;;;;;;;;;;;;;37.31;24.07;99559.66;4992527;28;893;-63
2022/08/04 13:43:32;;;;;;;;;;;;;;;38.65;23.33;99562.88;4992509;28;803;-63
2022/08/04 13:46:01;;;;;;;;;;;;;;;38.05;27.41;99574.16;4991557;28;866;-61
2022/08/04 13:48:39;;;;;;;;;;;;;;;37.42;29.70;99570.63;4992818;28;839;-63
2022/08/04 13:51:06;;;;;;;;;;;;;;;37.68;28.99;99566.22;4992387;28;917;-63
2022/08/04 13:53:33;;;;;;;;;;;;;;;38.23;28.86;99572.69;4992239;28;1902;-63
2022/08/04 13:56:02;;;;;;;;;;;;;;;36.82;30.27;99567.19;4992337;28;850;-63
2022/08/04 13:58:31;;;;;;;;;;;;;;;36.50;31.47;99560.22;4992284;28;815;-63
2022/08/04 14:01:01;;;;;;;;;;;;;;;36.58;31.99;99563.78;4992158;28;846;-63
2022/08/04 14:15:41;;;;;;;;;;;;;;;36.91;32.29;99549.97;4992526;28;601;-63
2022/08/04 14:18:22;;;;;;;;;;;;;;;36.53;32.65;99553.25;4992182;28;870;-63
2022/08/04 14:20:58;;;;;;;;;;;;;;;36.13;33.86;99557.13;4992091;28;861;-62
2022/08/04 14:23:25;;;;;;;;;;;;;;;35.90;33.37;99563.78;4992105;28;858;-63
2022/08/04 14:25:52;;;;;;;;;;;;;;;35.56;34.36;99555.78;4992062;28;795;-64
2022/08/04 14:28:29;;;;;;;;;;;;;;;35.47;34.50;99565.78;4974584;28;1205;-63
2022/08/04 14:31:12;;;;;;;;;;;;;;;34.35;36.67;99570.75;4992133;28;834;-64
2022/08/04 14:33:41;;;;;;;;;;;;;;;33.02;39.03;99576.00;4992276;28;1906;-62
2022/08/04 14:36:09;;;;;;;;;;;;;;;31.97;41.41;99584.81;4991956;28;850;-63
2022/08/04 14:38:43;;;;;;;;;;;;;;;30.88;43.19;99581.28;4991978;28;846;-62
2022/08/04 14:41:10;;;;;;;;;;;;;;;30.12;44.75;99575.94;4991972;28;870;-63
2022/08/04 14:43:44;;;;;;;;;;;;;;;30.06;45.11;99570.31;4991849;28;796;-63
2022/08/04 14:46:11;;;;;;;;;;;;;;;30.44;44.55;99575.88;4974392;28;1316;-63
2022/08/04 14:48:38;;;;;;;;;;;;;;;30.25;44.81;99578.03;4991841;28;984;-63
2022/08/04 14:51:12;;;;;;;;;;;;;;;30.69;44.41;99576.44;4991820;28;866;-63
2022/08/04 14:53:39;;;;;;;;;;;;;;;31.46;42.51;99573.84;4991765;28;1963;-63
2022/08/04 14:56:06;;;;;;;;;;;;;;;31.74;41.97;99576.78;4974621;28;1218;-62
2022/08/04 14:58:34;;;;;;;;;;;;;;;31.74;42.06;99576.00;4995336;28;866;-62